Time;durP1;ratioP1;P1;durP2;ratioP2;P2;SDS_P1;SDS_P2;PMS_P1;PMS_P2;Temp;Humidity;BMP_temperature;BMP_pressure;BME280_temperature;BME280_humidity;BME280_pressure;Samples;Min_cycle;Max_cycle;Signal;HPM_P1;HPM_P2
2022/01/20 00:00:19;;;;;;;20.90;12.10;;;;;;;;;;783544;176;919159;-64
2022/01/20 00:02:43;;;;;;;22.90;11.83;;;;;;;;;;783003;177;918954;-64
2022/01/20 00:05:25;;;;;;;19.97;12.20;;;;;;;;;;781447;179;918893;-64
2022/01/20 00:07:47;;;;;;;17.43;10.60;;;;;;;;;;784194;177;919257;-63
2022/01/20 00:28:09;;;;;;;20.03;12.60;;;;;;;;;;761604;182;918461;-61
2022/01/20 00:33:13;;;;;;;17.37;10.55;;;;;;;;;;778228;179;918963;-61
2022/01/20 00:35:27;;;;;;;14.27;9.40;;;;;;;;;;775616;180;919986;-61
2022/01/20 00:37:49;;;;;;;22.90;11.07;;;;;;;;;;777789;177;918127;-61
2022/01/20 00:40:15;;;;;;;21.73;11.90;;;;;;;;;;784026;176;920175;-60
2022/01/20 00:42:40;;;;;;;19.13;10.83;;;;;;;;;;774746;180;917651;-60
2022/01/20 00:45:07;;;;;;;22.40;12.30;;;;;;;;;;781092;176;927620;-61
2022/01/20 00:47:33;;;;;;;19.70;11.00;;;;;;;;;;789547;175;919376;-61
2022/01/20 00:49:59;;;;;;;17.92;11.93;;;;;;;;;;783780;176;921665;-59
2022/01/20 00:52:25;;;;;;;23.93;13.33;;;;;;;;;;790674;176;919221;-60
2022/01/20 00:54:51;;;;;;;17.40;11.33;;;;;;;;;;780111;176;920260;-61
2022/01/20 00:57:17;;;;;;;22.40;13.07;;;;;;;;;;775732;177;1124651;-60
2022/01/20 00:59:43;;;;;;;19.73;13.47;;;;;;;;;;788138;177;916293;-61
2022/01/20 01:02:09;;;;;;;21.57;11.43;;;;;;;;;;792054;175;920085;-60
2022/01/20 01:04:34;;;;;;;21.73;11.80;;;;;;;;;;783693;177;919788;-61
2022/01/20 01:07:19;;;;;;;22.67;12.93;;;;;;;;;;768793;181;922350;-62
2022/01/20 01:09:27;;;;;;;24.20;13.93;;;;;;;;;;757979;180;920160;-61
2022/01/20 01:11:58;;;;;;;19.60;11.10;;;;;;;;;;761373;181;919868;-61
2022/01/20 01:14:21;;;;;;;25.50;11.88;;;;;;;;;;789695;176;921303;-60
2022/01/20 01:22:20;;;;;;;23.20;7.90;;;;;;;;;;784592;177;915718;-60
2022/01/20 01:24:29;;;;;;;21.83;12.37;;;;;;;;;;778518;177;919305;-61
2022/01/20 01:26:55;;;;;;;29.42;9.63;;;;;;;;;;785597;177;920016;-60
2022/01/20 01:32:07;;;;;;;18.53;11.40;;;;;;;;;;777183;176;1123220;-60
2022/01/20 01:34:31;;;;;;;21.80;12.60;;;;;;;;;;790606;176;918984;-60
2022/01/20 01:37:06;;;;;;;14.40;6.50;;;;;;;;;;784718;175;919847;-61
2022/01/20 01:39:23;;;;;;;14.90;10.63;;;;;;;;;;792990;176;922013;-60
2022/01/20 01:41:49;;;;;;;20.37;11.07;;;;;;;;;;785150;176;919474;-60
2022/01/20 01:44:22;;;;;;;17.10;10.93;;;;;;;;;;781031;176;919280;-61
2022/01/20 01:46:41;;;;;;;17.23;10.27;;;;;;;;;;784024;177;919822;-60
2022/01/20 01:49:06;;;;;;;17.73;9.97;;;;;;;;;;782036;176;920399;-61
2022/01/20 01:51:32;;;;;;;25.40;13.30;;;;;;;;;;779928;178;920071;-61
2022/01/20 01:53:58;;;;;;;22.83;12.80;;;;;;;;;;783606;178;919122;-60
2022/01/20 01:56:24;;;;;;;19.85;11.27;;;;;;;;;;779791;177;934501;-61
2022/01/20 01:58:50;;;;;;;20.70;10.73;;;;;;;;;;785713;177;918860;-61
2022/01/20 02:01:16;;;;;;;20.60;9.80;;;;;;;;;;782419;177;918702;-61
2022/01/20 02:03:45;;;;;;;16.13;10.17;;;;;;;;;;787248;176;917261;-61
2022/01/20 02:06:33;;;;;;;16.87;8.63;;;;;;;;;;787997;177;921032;-60
2022/01/20 02:09:31;;;;;;;23.43;10.67;;;;;;;;;;784492;176;1020843;-60
2022/01/20 02:19:11;;;;;;;22.23;10.83;;;;;;;;;;785483;177;915874;-61
2022/01/20 02:21:36;;;;;;;20.90;12.30;;;;;;;;;;779641;177;915665;-60
2022/01/20 02:24:02;;;;;;;15.37;9.57;;;;;;;;;;776463;176;918781;-61
2022/01/20 02:26:28;;;;;;;20.60;11.00;;;;;;;;;;784205;176;919403;-60
2022/01/20 02:28:54;;;;;;;22.70;11.43;;;;;;;;;;778814;180;919977;-60
2022/01/20 02:31:20;;;;;;;19.20;8.50;;;;;;;;;;781914;176;921292;-60
2022/01/20 02:33:46;;;;;;;18.77;10.23;;;;;;;;;;777854;180;919241;-60
2022/01/20 02:36:15;;;;;;;11.50;6.00;;;;;;;;;;787224;177;919756;-60
2022/01/20 02:38:44;;;;;;;11.00;6.50;;;;;;;;;;781683;177;919155;-60
2022/01/20 02:46:08;;;;;;;30.30;11.70;;;;;;;;;;776410;176;919979;-61
2022/01/20 02:48:34;;;;;;;14.70;9.40;;;;;;;;;;793104;175;919492;-61
2022/01/20 02:51:00;;;;;;;17.53;11.37;;;;;;;;;;785392;176;918238;-61
2022/01/20 02:53:26;;;;;;;21.93;10.83;;;;;;;;;;770752;180;919082;-60
2022/01/20 02:55:51;;;;;;;19.30;10.30;;;;;;;;;;781180;178;920350;-60
2022/01/20 02:58:17;;;;;;;21.13;12.60;;;;;;;;;;782421;177;920117;-60
2022/01/20 03:00:43;;;;;;;24.45;11.98;;;;;;;;;;781245;177;918845;-60
2022/01/20 03:03:09;;;;;;;22.17;14.37;;;;;;;;;;776169;179;919671;-60
2022/01/20 03:05:36;;;;;;;23.63;13.03;;;;;;;;;;790569;174;919588;-60
2022/01/20 03:08:01;;;;;;;21.80;11.23;;;;;;;;;;778221;177;934759;-61
2022/01/20 03:10:27;;;;;;;20.50;12.40;;;;;;;;;;783011;176;918934;-61
2022/01/20 03:12:52;;;;;;;20.98;12.05;;;;;;;;;;770943;177;921480;-60
2022/01/20 03:15:18;;;;;;;22.23;12.98;;;;;;;;;;782236;176;965902;-59
2022/01/20 03:17:44;;;;;;;17.43;12.37;;;;;;;;;;775469;181;919637;-61
2022/01/20 03:20:11;;;;;;;25.00;14.43;;;;;;;;;;777810;176;919327;-61
2022/01/20 03:22:37;;;;;;;22.53;12.87;;;;;;;;;;790204;174;919271;-60
2022/01/20 03:25:03;;;;;;;21.80;12.65;;;;;;;;;;762292;180;918817;-59
2022/01/20 03:27:29;;;;;;;25.55;12.00;;;;;;;;;;779414;179;919711;-60
2022/01/20 03:29:55;;;;;;;17.00;10.60;;;;;;;;;;787238;176;922499;-60
2022/01/20 03:32:20;;;;;;;18.33;11.50;;;;;;;;;;780089;176;918551;-60
2022/01/20 03:34:46;;;;;;;25.50;14.60;;;;;;;;;;786927;176;918177;-61
2022/01/20 03:37:12;;;;;;;24.90;13.17;;;;;;;;;;780733;177;917287;-60
2022/01/20 03:39:38;;;;;;;26.20;12.10;;;;;;;;;;780732;176;919048;-60
2022/01/20 03:42:04;;;;;;;23.10;11.83;;;;;;;;;;783891;177;920111;-60
2022/01/20 03:44:30;;;;;;;26.00;12.90;;;;;;;;;;775489;177;919102;-61
2022/01/20 03:46:57;;;;;;;21.00;12.95;;;;;;;;;;780735;176;919695;-60
2022/01/20 03:50:07;;;;;;;26.07;13.93;;;;;;;;;;766840;180;919510;-61
2022/01/20 03:52:02;;;;;;;19.62;10.77;;;;;;;;;;780208;176;1021189;-61
2022/01/20 03:54:28;;;;;;;25.23;10.77;;;;;;;;;;789041;175;919437;-60
2022/01/20 03:56:54;;;;;;;19.93;11.23;;;;;;;;;;783657;176;919386;-61
2022/01/20 03:59:20;;;;;;;21.53;10.20;;;;;;;;;;788464;176;920116;-61
2022/01/20 04:01:46;;;;;;;22.90;11.83;;;;;;;;;;786524;176;920473;-61
2022/01/20 04:04:12;;;;;;;17.63;12.00;;;;;;;;;;778725;176;919582;-61
2022/01/20 04:06:37;;;;;;;23.93;12.60;;;;;;;;;;779848;176;919155;-61
2022/01/20 04:09:03;;;;;;;18.53;12.73;;;;;;;;;;783907;178;919265;-60
2022/01/20 04:11:29;;;;;;;20.33;11.63;;;;;;;;;;781581;176;919573;-60
2022/01/20 04:13:55;;;;;;;23.33;13.53;;;;;;;;;;765163;179;919790;-60
2022/01/20 04:16:21;;;;;;;22.07;12.97;;;;;;;;;;787549;176;919150;-62
2022/01/20 04:18:52;;;;;;;19.70;12.30;;;;;;;;;;781208;177;919076;-60
2022/01/20 04:21:12;;;;;;;23.67;14.80;;;;;;;;;;778366;177;919480;-60
2022/01/20 04:23:38;;;;;;;20.37;11.63;;;;;;;;;;779752;177;919241;-59
2022/01/20 04:26:04;;;;;;;20.37;12.40;;;;;;;;;;777458;180;919778;-60
2022/01/20 04:28:30;;;;;;;27.07;11.90;;;;;;;;;;778165;176;923952;-61
2022/01/20 04:30:56;;;;;;;24.67;12.97;;;;;;;;;;773972;177;920925;-61
2022/01/20 04:33:22;;;;;;;20.40;11.50;;;;;;;;;;772565;181;919735;-61
2022/01/20 04:35:48;;;;;;;21.07;12.00;;;;;;;;;;756811;183;926630;-61
2022/01/20 04:38:13;;;;;;;23.37;14.17;;;;;;;;;;777735;177;922234;-61
2022/01/20 04:40:42;;;;;;;24.57;12.90;;;;;;;;;;786476;177;919707;-61
2022/01/20 04:43:05;;;;;;;18.20;11.73;;;;;;;;;;777856;177;918943;-61
2022/01/20 04:45:36;;;;;;;17.30;10.50;;;;;;;;;;777022;180;920348;-60
2022/01/20 04:48:14;;;;;;;20.80;12.10;;;;;;;;;;785345;177;917934;-61
2022/01/20 04:58:13;;;;;;;23.73;12.00;;;;;;;;;;776179;177;918055;-60
2022/01/20 05:00:38;;;;;;;15.97;10.13;;;;;;;;;;779837;176;920758;-60
2022/01/20 05:03:05;;;;;;;26.60;11.73;;;;;;;;;;776497;179;919393;-60
2022/01/20 05:05:30;;;;;;;10.33;5.90;;;;;;;;;;786885;175;918243;-60
2022/01/20 05:07:56;;;;;;;22.73;11.53;;;;;;;;;;778211;176;915380;-61
2022/01/20 05:10:22;;;;;;;20.47;9.77;;;;;;;;;;782708;176;917132;-60
2022/01/20 05:13:04;;;;;;;15.03;9.93;;;;;;;;;;786830;176;630554;-60
2022/01/20 05:15:14;;;;;;;14.00;9.13;;;;;;;;;;780386;177;636149;-60
2022/01/20 05:17:40;;;;;;;17.40;10.53;;;;;;;;;;796324;177;631024;-60
2022/01/20 05:20:06;;;;;;;17.30;11.77;;;;;;;;;;793207;177;633483;-61
2022/01/20 05:22:32;;;;;;;21.50;11.67;;;;;;;;;;784331;177;627055;-60
2022/01/20 05:24:58;;;;;;;20.87;12.07;;;;;;;;;;789100;176;701862;-60
2022/01/20 05:27:24;;;;;;;17.00;11.17;;;;;;;;;;786171;179;616663;-59
2022/01/20 05:29:50;;;;;;;15.10;8.40;;;;;;;;;;792713;176;628268;-60
2022/01/20 05:32:16;;;;;;;21.17;11.47;;;;;;;;;;790020;176;622187;-60
2022/01/20 05:34:42;;;;;;;20.58;10.60;;;;;;;;;;785424;177;918888;-60
2022/01/20 05:37:08;;;;;;;15.30;8.80;;;;;;;;;;780077;177;918546;-60
2022/01/20 05:39:33;;;;;;;19.35;11.90;;;;;;;;;;782180;177;918740;-60
2022/01/20 05:41:59;;;;;;;22.40;12.10;;;;;;;;;;790425;177;621934;-60
2022/01/20 05:44:25;;;;;;;21.70;10.80;;;;;;;;;;785119;177;625939;-60
2022/01/20 05:46:52;;;;;;;16.37;9.77;;;;;;;;;;783763;176;636209;-60
2022/01/20 05:49:21;;;;;;;18.70;11.60;;;;;;;;;;788609;177;608625;-61
2022/01/20 05:51:44;;;;;;;17.60;10.50;;;;;;;;;;788739;177;633938;-61
2022/01/20 05:54:10;;;;;;;17.27;10.23;;;;;;;;;;783392;177;634771;-61
2022/01/20 05:56:36;;;;;;;13.03;9.30;;;;;;;;;;779346;177;921731;-60
2022/01/20 05:59:02;;;;;;;9.23;5.67;;;;;;;;;;782365;180;869479;-61
2022/01/20 06:01:27;;;;;;;10.90;7.03;;;;;;;;;;783202;177;918507;-60
2022/01/20 06:03:54;;;;;;;12.77;7.62;;;;;;;;;;780795;176;919734;-60
2022/01/20 06:06:19;;;;;;;14.83;7.90;;;;;;;;;;784627;178;919299;-60
2022/01/20 06:08:45;;;;;;;15.37;8.80;;;;;;;;;;782020;177;918552;-61
2022/01/20 06:11:11;;;;;;;11.47;8.60;;;;;;;;;;779064;177;919852;-61
2022/01/20 06:13:37;;;;;;;12.67;8.30;;;;;;;;;;783529;176;936491;-61
2022/01/20 06:16:03;;;;;;;11.30;6.80;;;;;;;;;;781099;176;919057;-61
2022/01/20 06:18:29;;;;;;;11.97;7.37;;;;;;;;;;785051;176;919083;-61
2022/01/20 06:20:54;;;;;;;10.53;6.60;;;;;;;;;;789238;176;919734;-61
2022/01/20 06:23:20;;;;;;;11.97;6.70;;;;;;;;;;793566;176;642681;-61
2022/01/20 06:25:46;;;;;;;14.07;6.80;;;;;;;;;;788053;177;919626;-62
2022/01/20 06:28:12;;;;;;;14.63;8.70;;;;;;;;;;782221;177;919635;-61
2022/01/20 06:30:38;;;;;;;17.60;9.13;;;;;;;;;;784303;177;919444;-62
2022/01/20 06:33:04;;;;;;;12.60;8.30;;;;;;;;;;779555;176;919082;-62
2022/01/20 06:35:29;;;;;;;12.23;8.17;;;;;;;;;;773876;177;919070;-61
2022/01/20 06:37:55;;;;;;;16.43;9.73;;;;;;;;;;785087;177;919551;-62
2022/01/20 06:40:21;;;;;;;16.13;9.70;;;;;;;;;;777895;177;1022017;-62
2022/01/20 06:42:47;;;;;;;13.73;8.80;;;;;;;;;;778284;179;920161;-62
2022/01/20 06:45:13;;;;;;;14.00;8.90;;;;;;;;;;779867;176;929990;-62
2022/01/20 06:47:39;;;;;;;13.70;8.57;;;;;;;;;;773864;177;919830;-62
2022/01/20 06:50:05;;;;;;;14.07;9.50;;;;;;;;;;767969;177;917983;-61
2022/01/20 06:52:31;;;;;;;15.83;9.80;;;;;;;;;;784757;177;918988;-62
2022/01/20 06:54:58;;;;;;;15.37;8.63;;;;;;;;;;783416;179;917481;-63
2022/01/20 06:57:23;;;;;;;14.87;8.57;;;;;;;;;;783400;177;919343;-62
2022/01/20 06:59:49;;;;;;;10.60;7.40;;;;;;;;;;781503;177;919033;-62
2022/01/20 07:02:14;;;;;;;10.97;7.97;;;;;;;;;;784009;177;919292;-62
2022/01/20 07:04:40;;;;;;;12.20;9.07;;;;;;;;;;777681;177;921249;-62
2022/01/20 07:07:06;;;;;;;13.57;8.03;;;;;;;;;;778038;177;918858;-62
2022/01/20 07:09:33;;;;;;;13.65;9.13;;;;;;;;;;785135;177;920123;-61
2022/01/20 07:11:59;;;;;;;14.03;8.53;;;;;;;;;;776471;180;918831;-63
2022/01/20 07:14:25;;;;;;;15.80;8.80;;;;;;;;;;775288;178;920617;-63
2022/01/20 07:16:51;;;;;;;14.13;9.43;;;;;;;;;;767493;179;919297;-63
2022/01/20 07:19:17;;;;;;;14.27;8.63;;;;;;;;;;775296;179;918245;-63
2022/01/20 07:21:43;;;;;;;12.57;7.93;;;;;;;;;;781039;177;1018519;-63
2022/01/20 07:24:09;;;;;;;14.93;7.90;;;;;;;;;;778445;176;916550;-63
2022/01/20 07:26:35;;;;;;;14.13;8.87;;;;;;;;;;787600;176;919491;-63
2022/01/20 07:29:00;;;;;;;16.15;8.30;;;;;;;;;;779928;176;919827;-61
2022/01/20 07:31:26;;;;;;;11.50;7.40;;;;;;;;;;784643;177;919042;-64
2022/01/20 07:33:53;;;;;;;11.00;6.75;;;;;;;;;;785298;177;919362;-62
2022/01/20 07:36:19;;;;;;;16.23;9.37;;;;;;;;;;778397;179;920156;-63
2022/01/20 07:38:44;;;;;;;17.77;10.57;;;;;;;;;;777610;178;920049;-63
2022/01/20 07:41:10;;;;;;;13.90;8.35;;;;;;;;;;787459;176;919501;-63
2022/01/20 07:43:36;;;;;;;17.47;8.60;;;;;;;;;;785920;177;919140;-64
2022/01/20 07:46:02;;;;;;;13.18;8.10;;;;;;;;;;780631;176;919592;-63
2022/01/20 07:48:28;;;;;;;12.47;7.53;;;;;;;;;;781881;176;918660;-64
2022/01/20 07:50:54;;;;;;;12.80;7.13;;;;;;;;;;779327;178;915437;-64
2022/01/20 07:53:19;;;;;;;7.37;5.20;;;;;;;;;;781551;176;916464;-65
2022/01/20 07:55:45;;;;;;;5.30;3.47;;;;;;;;;;780840;177;916559;-64
2022/01/20 07:58:11;;;;;;;8.52;3.33;;;;;;;;;;785060;177;915601;-65
2022/01/20 08:00:37;;;;;;;7.00;3.00;;;;;;;;;;778850;177;915460;-64
2022/01/20 08:03:03;;;;;;;3.83;2.50;;;;;;;;;;776872;177;1067164;-65
2022/01/20 08:05:29;;;;;;;6.73;2.57;;;;;;;;;;779047;177;1020615;-65
2022/01/20 08:07:55;;;;;;;4.30;2.57;;;;;;;;;;787623;176;921010;-65
2022/01/20 08:10:21;;;;;;;6.53;2.43;;;;;;;;;;781848;176;919535;-65
2022/01/20 08:12:46;;;;;;;5.33;2.97;;;;;;;;;;778238;177;918705;-65
2022/01/20 08:15:14;;;;;;;4.93;2.22;;;;;;;;;;787136;177;919376;-65
2022/01/20 08:17:38;;;;;;;5.57;2.37;;;;;;;;;;781240;177;918097;-66
2022/01/20 08:20:04;;;;;;;3.13;2.00;;;;;;;;;;780605;177;917811;-65
2022/01/20 08:22:34;;;;;;;3.90;1.80;;;;;;;;;;779689;177;923957;-65
2022/01/20 08:24:56;;;;;;;6.23;2.17;;;;;;;;;;779120;177;919315;-64
2022/01/20 08:27:22;;;;;;;4.10;2.17;;;;;;;;;;778898;176;919403;-65
2022/01/20 08:29:47;;;;;;;6.63;2.20;;;;;;;;;;781971;176;921654;-65
2022/01/20 08:32:13;;;;;;;3.53;2.00;;;;;;;;;;786782;177;916075;-66
2022/01/20 08:34:39;;;;;;;3.70;2.03;;;;;;;;;;784582;177;918998;-64
2022/01/20 08:37:05;;;;;;;8.50;2.87;;;;;;;;;;781103;176;917078;-67
2022/01/20 08:42:11;;;;;;;8.03;2.77;;;;;;;;;;786888;178;914360;-64
2022/01/20 08:44:37;;;;;;;9.63;2.90;;;;;;;;;;789042;176;918268;-65
2022/01/20 08:47:03;;;;;;;5.10;1.90;;;;;;;;;;784738;177;917477;-64
2022/01/20 08:49:29;;;;;;;6.30;2.50;;;;;;;;;;787807;177;916795;-65
2022/01/20 08:51:55;;;;;;;6.77;1.90;;;;;;;;;;795108;173;914501;-64
2022/01/20 08:54:21;;;;;;;5.20;2.27;;;;;;;;;;784432;176;914153;-65
2022/01/20 08:56:46;;;;;;;4.60;1.50;;;;;;;;;;789003;176;913772;-65
2022/01/20 08:59:12;;;;;;;7.80;1.90;;;;;;;;;;780727;176;920770;-65
2022/01/20 09:01:38;;;;;;;4.30;1.93;;;;;;;;;;767375;182;919343;-65
2022/01/20 09:04:04;;;;;;;7.03;2.00;;;;;;;;;;766479;180;919609;-65
2022/01/20 09:06:30;;;;;;;9.40;2.20;;;;;;;;;;786827;176;918828;-63
2022/01/20 09:08:56;;;;;;;5.23;2.50;;;;;;;;;;786292;177;918149;-64
2022/01/20 09:11:24;;;;;;;16.03;2.50;;;;;;;;;;779092;177;1160693;-63
2022/01/20 09:16:20;;;;;;;6.57;2.50;;;;;;;;;;779131;177;920368;-63
2022/01/20 09:18:46;;;;;;;14.05;2.60;;;;;;;;;;776501;177;918699;-63
2022/01/20 09:21:11;;;;;;;5.97;2.40;;;;;;;;;;771304;180;919649;-63
2022/01/20 09:23:37;;;;;;;18.23;1.83;;;;;;;;;;750673;186;919137;-63
2022/01/20 09:26:03;;;;;;;6.43;3.10;;;;;;;;;;756720;181;918706;-62
2022/01/20 09:28:29;;;;;;;6.23;2.20;;;;;;;;;;786415;177;919819;-62
2022/01/20 09:30:58;;;;;;;11.77;1.73;;;;;;;;;;789184;177;919547;-63
2022/01/20 09:33:27;;;;;;;3.60;1.57;;;;;;;;;;780039;177;919815;-62
2022/01/20 09:35:50;;;;;;;8.32;2.15;;;;;;;;;;777596;178;919320;-62
2022/01/20 09:38:16;;;;;;;6.00;1.93;;;;;;;;;;783179;177;918784;-63
2022/01/20 09:40:43;;;;;;;6.68;1.90;;;;;;;;;;786358;176;918980;-62
2022/01/20 09:43:10;;;;;;;9.10;2.50;;;;;;;;;;782322;176;921011;-62
2022/01/20 09:45:34;;;;;;;6.80;2.47;;;;;;;;;;785096;177;918967;-62
2022/01/20 09:48:01;;;;;;;10.10;2.10;;;;;;;;;;785572;177;918145;-62
2022/01/20 09:50:29;;;;;;;4.50;1.80;;;;;;;;;;780493;176;1022388;-62
2022/01/20 09:52:57;;;;;;;6.20;1.43;;;;;;;;;;793955;175;919589;-62
2022/01/20 09:55:20;;;;;;;4.63;1.93;;;;;;;;;;784184;176;919789;-61
2022/01/20 09:57:46;;;;;;;8.87;2.60;;;;;;;;;;786618;176;919620;-62
2022/01/20 10:00:13;;;;;;;5.18;2.30;;;;;;;;;;780187;176;920087;-65
2022/01/20 10:02:55;;;;;;;5.63;2.20;;;;;;;;;;778338;176;919147;-61
2022/01/20 10:05:26;;;;;;;7.28;1.95;;;;;;;;;;771911;179;919440;-61
2022/01/20 10:07:52;;;;;;;8.23;2.27;;;;;;;;;;780645;177;919376;-64
2022/01/20 10:10:17;;;;;;;11.63;1.83;;;;;;;;;;781228;177;918779;-62
2022/01/20 10:12:43;;;;;;;7.63;2.73;;;;;;;;;;779682;177;919152;-62
2022/01/20 10:15:12;;;;;;;6.07;1.90;;;;;;;;;;785074;177;918820;-61
2022/01/20 10:17:35;;;;;;;5.80;2.10;;;;;;;;;;775506;177;918302;-61
2022/01/20 10:20:02;;;;;;;2.83;1.90;;;;;;;;;;760298;183;1020768;-61
2022/01/20 10:22:27;;;;;;;6.73;2.43;;;;;;;;;;795071;175;918965;-62
2022/01/20 10:24:59;;;;;;;5.77;3.17;;;;;;;;;;783843;175;921680;-62
2022/01/20 10:27:25;;;;;;;5.70;3.17;;;;;;;;;;779708;177;919469;-62
2022/01/20 10:29:56;;;;;;;5.83;3.37;;;;;;;;;;779112;177;918703;-63
2022/01/20 10:32:21;;;;;;;10.50;3.40;;;;;;;;;;785826;177;918318;-62
2022/01/20 10:34:47;;;;;;;8.80;3.17;;;;;;;;;;778311;177;1020663;-62
2022/01/20 10:37:16;;;;;;;5.50;3.28;;;;;;;;;;780437;177;918875;-62
2022/01/20 10:39:40;;;;;;;6.10;2.47;;;;;;;;;;781713;177;919590;-63
2022/01/20 10:42:06;;;;;;;4.40;2.03;;;;;;;;;;782551;177;920101;-62
2022/01/20 10:44:50;;;;;;;6.95;2.03;;;;;;;;;;779323;177;918290;-63
2022/01/20 10:47:15;;;;;;;4.37;2.30;;;;;;;;;;778324;177;919612;-64
2022/01/20 10:49:41;;;;;;;13.68;2.53;;;;;;;;;;779948;177;985678;-62
2022/01/20 10:52:07;;;;;;;7.30;2.97;;;;;;;;;;786367;177;918923;-64
2022/01/20 10:54:49;;;;;;;6.70;2.50;;;;;;;;;;778170;177;919409;-63
2022/01/20 10:57:16;;;;;;;4.47;1.87;;;;;;;;;;779111;177;921407;-63
2022/01/20 11:00:03;;;;;;;4.67;2.13;;;;;;;;;;779332;177;935072;-63
2022/01/20 11:02:29;;;;;;;4.03;1.77;;;;;;;;;;794927;173;919880;-64
2022/01/20 11:04:54;;;;;;;6.97;2.53;;;;;;;;;;784932;176;918624;-63
2022/01/20 11:07:20;;;;;;;11.60;2.50;;;;;;;;;;785381;176;919591;-64
2022/01/20 11:09:50;;;;;;;8.13;1.70;;;;;;;;;;780942;178;919687;-63
2022/01/20 11:12:12;;;;;;;8.47;3.00;;;;;;;;;;768205;179;919087;-62
2022/01/20 11:14:38;;;;;;;5.70;2.53;;;;;;;;;;768097;180;919897;-63
2022/01/20 11:17:04;;;;;;;10.07;2.93;;;;;;;;;;748174;184;919793;-63
2022/01/20 11:19:31;;;;;;;7.83;2.90;;;;;;;;;;778956;177;919135;-63
2022/01/20 11:21:55;;;;;;;9.77;2.63;;;;;;;;;;783540;176;920155;-63
2022/01/20 11:24:22;;;;;;;8.73;2.00;;;;;;;;;;789160;176;918176;-63
2022/01/20 11:26:50;;;;;;;5.97;3.27;;;;;;;;;;794123;175;919046;-64
2022/01/20 11:29:16;;;;;;;14.10;3.43;;;;;;;;;;780084;176;919714;-63
2022/01/20 11:31:41;;;;;;;6.97;2.60;;;;;;;;;;786943;177;918644;-62
2022/01/20 11:34:24;;;;;;;6.57;2.23;;;;;;;;;;784257;176;919472;-62
2022/01/20 11:36:49;;;;;;;6.00;1.57;;;;;;;;;;781876;177;919351;-62
2022/01/20 11:39:15;;;;;;;4.03;2.13;;;;;;;;;;782133;179;919367;-64
2022/01/20 11:41:43;;;;;;;2.70;2.03;;;;;;;;;;789766;176;918911;-63
2022/01/20 11:44:07;;;;;;;5.83;2.50;;;;;;;;;;786875;176;919383;-62
2022/01/20 11:46:33;;;;;;;8.93;5.20;;;;;;;;;;782377;177;919426;-64
2022/01/20 11:49:01;;;;;;;5.43;2.70;;;;;;;;;;785555;177;919311;-65
2022/01/20 11:51:27;;;;;;;3.60;1.10;;;;;;;;;;778686;177;918517;-65
2022/01/20 11:53:53;;;;;;;2.57;1.37;;;;;;;;;;779778;177;917892;-65
2022/01/20 11:56:19;;;;;;;3.00;1.37;;;;;;;;;;780412;177;919880;-65
2022/01/20 11:58:45;;;;;;;2.97;1.97;;;;;;;;;;783770;177;948560;-66
2022/01/20 12:01:11;;;;;;;4.73;2.20;;;;;;;;;;777271;177;919266;-64
2022/01/20 12:03:36;;;;;;;2.87;1.77;;;;;;;;;;777943;177;917794;-66
2022/01/20 12:06:03;;;;;;;2.80;1.90;;;;;;;;;;784214;180;922178;-66
2022/01/20 12:08:29;;;;;;;2.67;1.47;;;;;;;;;;779013;177;1047045;-63
2022/01/20 12:10:57;;;;;;;8.57;1.70;;;;;;;;;;777597;178;919848;-64
2022/01/20 12:13:23;;;;;;;1.90;1.20;;;;;;;;;;791333;176;634921;-63
2022/01/20 12:15:49;;;;;;;2.40;1.40;;;;;;;;;;780656;176;627033;-64
2022/01/20 12:18:15;;;;;;;2.70;1.60;;;;;;;;;;780022;176;916492;-64
2022/01/20 12:20:41;;;;;;;3.00;1.80;;;;;;;;;;786328;177;664790;-65
2022/01/20 12:23:07;;;;;;;3.90;1.80;;;;;;;;;;787722;178;863394;-65
2022/01/20 12:25:33;;;;;;;3.90;1.63;;;;;;;;;;786344;175;949881;-64
2022/01/20 12:28:03;;;;;;;6.30;1.10;;;;;;;;;;791596;175;916414;-64
2022/01/20 12:30:30;;;;;;;4.22;1.62;;;;;;;;;;781683;177;916083;-63
2022/01/20 12:32:56;;;;;;;3.60;1.47;;;;;;;;;;773713;177;918257;-63
2022/01/20 12:35:22;;;;;;;7.27;2.07;;;;;;;;;;780215;177;920046;-64
2022/01/20 12:37:48;;;;;;;6.28;2.45;;;;;;;;;;777932;179;918778;-64
2022/01/20 12:40:18;;;;;;;5.53;1.73;;;;;;;;;;782725;176;919678;-64
2022/01/20 12:42:44;;;;;;;2.95;1.70;;;;;;;;;;778605;177;927175;-64
2022/01/20 12:47:41;;;;;;;4.78;2.42;;;;;;;;;;777437;178;915519;-64
2022/01/20 12:50:08;;;;;;;6.03;3.20;;;;;;;;;;785982;179;916632;-64
2022/01/20 12:52:34;;;;;;;7.50;2.33;;;;;;;;;;783511;177;917854;-63
2022/01/20 12:54:59;;;;;;;3.17;2.17;;;;;;;;;;785330;176;919910;-63
2022/01/20 12:57:25;;;;;;;6.35;2.20;;;;;;;;;;787397;176;919659;-64
2022/01/20 12:59:54;;;;;;;6.97;2.10;;;;;;;;;;778234;177;919045;-63
2022/01/20 13:02:23;;;;;;;6.63;2.20;;;;;;;;;;778143;177;919877;-64
2022/01/20 13:04:46;;;;;;;10.47;2.40;;;;;;;;;;775722;179;919172;-63
2022/01/20 13:07:15;;;;;;;3.97;1.87;;;;;;;;;;788255;176;920370;-64
2022/01/20 13:09:44;;;;;;;7.00;2.40;;;;;;;;;;788454;176;919399;-63
2022/01/20 13:12:10;;;;;;;12.60;2.73;;;;;;;;;;780794;177;919886;-64
2022/01/20 13:14:36;;;;;;;4.40;3.00;;;;;;;;;;785741;177;918598;-63
2022/01/20 13:17:02;;;;;;;3.08;1.70;;;;;;;;;;788477;176;918658;-63
2022/01/20 13:19:33;;;;;;;8.40;2.60;;;;;;;;;;791910;174;919992;-63
2022/01/20 13:22:00;;;;;;;8.03;2.20;;;;;;;;;;785670;177;924700;-64
2022/01/20 13:24:25;;;;;;;6.93;2.50;;;;;;;;;;792624;176;919252;-63
2022/01/20 13:26:52;;;;;;;6.13;2.00;;;;;;;;;;782816;176;918261;-63
2022/01/20 13:29:17;;;;;;;5.53;2.90;;;;;;;;;;781380;176;918988;-64
2022/01/20 13:31:43;;;;;;;4.73;2.10;;;;;;;;;;786800;176;919047;-63
2022/01/20 13:34:08;;;;;;;6.27;2.30;;;;;;;;;;785676;177;922866;-63
2022/01/20 13:36:35;;;;;;;4.12;2.08;;;;;;;;;;787926;176;919069;-64
2022/01/20 13:39:01;;;;;;;5.20;2.10;;;;;;;;;;779432;176;919561;-63
2022/01/20 13:41:27;;;;;;;5.77;2.50;;;;;;;;;;783782;176;917437;-63
2022/01/20 13:46:24;;;;;;;6.20;2.30;;;;;;;;;;778654;177;918633;-63
2022/01/20 13:48:50;;;;;;;3.50;2.07;;;;;;;;;;783388;177;919142;-63
2022/01/20 13:51:17;;;;;;;6.00;2.60;;;;;;;;;;776909;177;927701;-63
2022/01/20 13:53:42;;;;;;;10.20;2.30;;;;;;;;;;780993;176;918750;-63
2022/01/20 13:56:11;;;;;;;8.65;2.80;;;;;;;;;;767795;182;919099;-66
2022/01/20 13:58:38;;;;;;;5.83;2.17;;;;;;;;;;764413;179;922525;-64
2022/01/20 14:01:06;;;;;;;9.03;2.53;;;;;;;;;;778229;177;919729;-63
2022/01/20 14:03:30;;;;;;;7.43;4.00;;;;;;;;;;778483;177;920080;-63
2022/01/20 14:05:56;;;;;;;11.35;3.33;;;;;;;;;;784792;176;919453;-63
2022/01/20 14:08:22;;;;;;;8.23;3.63;;;;;;;;;;778217;176;918964;-62
2022/01/20 14:10:48;;;;;;;6.67;2.40;;;;;;;;;;778995;177;918715;-63
2022/01/20 14:13:14;;;;;;;5.37;2.30;;;;;;;;;;783399;177;919493;-63
2022/01/20 14:15:40;;;;;;;9.10;2.37;;;;;;;;;;780441;176;1021830;-64
2022/01/20 14:18:07;;;;;;;5.20;3.17;;;;;;;;;;777741;177;922603;-62
2022/01/20 14:20:34;;;;;;;8.00;3.27;;;;;;;;;;781319;177;918885;-63
2022/01/20 14:23:00;;;;;;;13.77;4.00;;;;;;;;;;787556;177;918684;-62
2022/01/20 14:25:25;;;;;;;11.50;3.20;;;;;;;;;;778752;176;919947;-63
2022/01/20 14:27:51;;;;;;;3.47;2.10;;;;;;;;;;781252;177;917972;-63
2022/01/20 14:30:17;;;;;;;4.97;2.33;;;;;;;;;;784897;177;916154;-63
2022/01/20 14:32:43;;;;;;;6.33;2.60;;;;;;;;;;777637;177;923320;-62
2022/01/20 14:35:09;;;;;;;7.83;3.30;;;;;;;;;;788881;176;919616;-62
2022/01/20 14:37:37;;;;;;;11.00;3.70;;;;;;;;;;790926;176;918992;-63
2022/01/20 14:40:00;;;;;;;12.47;6.23;;;;;;;;;;784535;176;919937;-63
2022/01/20 14:42:26;;;;;;;9.03;3.77;;;;;;;;;;782628;176;1006183;-61
2022/01/20 14:44:52;;;;;;;11.23;5.57;;;;;;;;;;780450;176;918437;-62
2022/01/20 14:47:18;;;;;;;6.20;3.43;;;;;;;;;;788459;180;628835;-62
2022/01/20 14:49:44;;;;;;;14.03;6.87;;;;;;;;;;781178;176;918926;-63
2022/01/20 14:52:10;;;;;;;11.10;5.50;;;;;;;;;;777498;176;918782;-63
2022/01/20 14:54:36;;;;;;;11.63;3.30;;;;;;;;;;786211;176;916448;-63
2022/01/20 14:57:01;;;;;;;8.43;4.40;;;;;;;;;;776580;176;919506;-64
2022/01/20 14:59:27;;;;;;;19.80;9.70;;;;;;;;;;767980;180;919646;-63
2022/01/20 15:01:53;;;;;;;34.37;19.90;;;;;;;;;;774431;181;918543;-63
2022/01/20 15:04:19;;;;;;;19.63;10.77;;;;;;;;;;775525;176;919231;-63
2022/01/20 15:06:45;;;;;;;11.30;4.93;;;;;;;;;;778215;176;1055240;-63
2022/01/20 15:09:11;;;;;;;7.50;3.40;;;;;;;;;;778689;177;919763;-62
2022/01/20 15:11:37;;;;;;;10.52;4.05;;;;;;;;;;776922;177;916387;-62